createdAt,value
2022-11-26T00:02:21.334Z,6.10
2022-11-26T00:04:49.529Z,8.27
2022-11-26T00:07:22.373Z,7.95
2022-11-26T00:09:50.368Z,11.60
2022-11-26T00:12:29.571Z,8.98
2022-11-26T00:14:57.080Z,6.38
2022-11-26T00:17:24.846Z,7.93
2022-11-26T00:19:52.430Z,6.75
2022-11-26T00:22:27.178Z,6.55
2022-11-26T00:24:55.093Z,9.23
2022-11-26T00:27:26.408Z,11.02
2022-11-26T00:29:54.781Z,7.45
2022-11-26T00:32:25.055Z,9.48
2022-11-26T00:34:53.563Z,8.95
2022-11-26T00:37:24.057Z,5.32
2022-11-26T00:39:52.185Z,13.20
2022-11-26T00:42:20.105Z,9.07
2022-11-26T00:44:47.816Z,9.05
2022-11-26T00:47:15.371Z,8.20
2022-11-26T00:49:42.888Z,12.18
2022-11-26T00:52:34.310Z,12.13
2022-11-26T00:55:17.130Z,13.95
2022-11-26T00:57:44.725Z,16.13
2022-11-26T01:00:17.538Z,16.13
2022-11-26T01:02:45.918Z,19.33
2022-11-26T01:05:13.725Z,15.00
2022-11-26T01:07:42.990Z,14.45
2022-11-26T01:10:20.130Z,7.38
2022-11-26T01:12:48.364Z,9.20
2022-11-26T01:15:17.355Z,10.40
2022-11-26T01:17:45.023Z,17.13
2022-11-26T01:20:26.689Z,12.45
2022-11-26T01:22:55.910Z,19.83
2022-11-26T01:25:25.450Z,17.10
2022-11-26T01:27:53.116Z,15.02
2022-11-26T01:30:30.705Z,10.32
2022-11-26T01:33:00.889Z,16.98
2022-11-26T01:35:28.966Z,15.10
2022-11-26T01:37:56.557Z,12.45
2022-11-26T01:40:27.070Z,14.15
2022-11-26T01:43:13.762Z,13.93
2022-11-26T01:45:41.402Z,14.35
2022-11-26T01:48:29.393Z,18.52
2022-11-26T01:51:07.951Z,23.63
2022-11-26T01:53:35.370Z,14.52
2022-11-26T01:56:10.942Z,15.65
2022-11-26T01:58:42.402Z,13.80
2022-11-26T02:01:10.933Z,17.73
2022-11-26T02:03:49.937Z,14.80
2022-11-26T02:06:21.286Z,20.40
2022-11-26T02:08:48.884Z,15.15
2022-11-26T02:11:20.725Z,13.93
2022-11-26T02:13:51.530Z,19.33
2022-11-26T02:16:47.265Z,18.17
2022-11-26T02:19:36.179Z,18.67
2022-11-26T02:22:37.162Z,23.70
2022-11-26T02:25:13.965Z,19.40
2022-11-26T02:28:07.802Z,17.90
2022-11-26T02:31:00.994Z,18.98
2022-11-26T02:33:40.219Z,16.55
2022-11-26T02:36:10.150Z,12.70
2022-11-26T02:38:39.356Z,16.80
2022-11-26T02:41:06.843Z,12.88
2022-11-26T02:43:35.356Z,17.88
2022-11-26T02:46:09.563Z,11.95
2022-11-26T02:48:44.452Z,18.90
2022-11-26T02:51:18.108Z,19.90
2022-11-26T02:53:47.746Z,10.05
2022-11-26T02:56:21.480Z,19.60
2022-11-26T02:58:50.901Z,19.02
2022-11-26T03:01:36.179Z,17.58
2022-11-26T03:04:12.859Z,17.52
2022-11-26T03:06:41.392Z,12.18
2022-11-26T03:09:08.953Z,13.23
2022-11-26T03:11:36.488Z,14.73
2022-11-26T03:14:04.334Z,11.02
2022-11-26T03:16:31.824Z,15.70
2022-11-26T03:18:59.255Z,11.40
2022-11-26T03:21:26.806Z,13.80
2022-11-26T03:23:54.252Z,13.68
2022-11-26T03:26:21.685Z,9.90
2022-11-26T03:28:49.187Z,28.75
2022-11-26T03:31:16.717Z,18.63
2022-11-26T03:33:44.216Z,14.90
2022-11-26T03:36:11.736Z,12.52
2022-11-26T03:38:39.214Z,14.10
2022-11-26T03:41:06.638Z,11.70
2022-11-26T03:43:34.096Z,20.92
2022-11-26T03:46:01.553Z,17.55
2022-11-26T03:48:29.048Z,16.77
2022-11-26T03:50:56.440Z,13.90
2022-11-26T03:53:23.906Z,15.18
2022-11-26T03:55:51.341Z,19.65
2022-11-26T03:58:18.802Z,18.10
2022-11-26T04:00:46.245Z,20.10
2022-11-26T04:03:13.873Z,20.10
2022-11-26T04:05:41.407Z,16.77
2022-11-26T04:08:09.044Z,16.17
2022-11-26T04:10:36.466Z,15.10
2022-11-26T04:13:04.052Z,18.00
2022-11-26T04:15:31.847Z,15.32
2022-11-26T04:17:59.422Z,19.25
2022-11-26T04:20:26.919Z,16.30
2022-11-26T04:22:54.379Z,17.15
2022-11-26T04:25:21.861Z,11.50
2022-11-26T04:27:52.703Z,14.05
2022-11-26T04:30:20.444Z,22.02
2022-11-26T04:32:48.055Z,11.70
2022-11-26T04:35:15.584Z,12.18
2022-11-26T04:37:43.063Z,16.25
2022-11-26T04:40:11.279Z,11.45
2022-11-26T04:42:38.664Z,17.70
2022-11-26T04:45:06.496Z,16.13
2022-11-26T04:47:34.062Z,10.00
2022-11-26T04:50:01.689Z,13.45
2022-11-26T04:52:29.124Z,17.95
2022-11-26T04:54:56.626Z,17.83
2022-11-26T04:57:24.020Z,13.02
2022-11-26T04:59:54.037Z,13.32
2022-11-26T05:02:21.574Z,19.38
2022-11-26T05:04:50.349Z,14.00
2022-11-26T05:07:18.145Z,14.73
2022-11-26T05:09:45.714Z,19.02
2022-11-26T05:12:13.132Z,15.38
2022-11-26T05:14:40.868Z,19.35
2022-11-26T05:17:08.474Z,23.52
2022-11-26T05:19:36.014Z,22.95
2022-11-26T05:22:03.526Z,17.13
2022-11-26T05:24:30.976Z,18.27
2022-11-26T05:26:58.431Z,17.42
2022-11-26T05:29:26.165Z,20.08
2022-11-26T05:31:53.766Z,19.77
2022-11-26T05:34:21.487Z,12.52
2022-11-26T05:36:48.888Z,11.73
2022-11-26T05:39:16.825Z,9.77
2022-11-26T05:41:44.355Z,13.38
2022-11-26T05:44:11.808Z,11.25
2022-11-26T05:46:42.248Z,14.65
2022-11-26T05:49:10.146Z,22.77
2022-11-26T05:51:37.594Z,18.02
2022-11-26T05:54:05.242Z,11.23
2022-11-26T05:56:32.748Z,16.17
2022-11-26T05:59:00.233Z,15.15
2022-11-26T06:01:27.697Z,13.18
2022-11-26T06:03:55.216Z,13.60
2022-11-26T06:06:22.699Z,7.78
2022-11-26T06:08:50.191Z,11.70
2022-11-26T06:11:17.873Z,10.20
2022-11-26T06:13:45.389Z,13.85
2022-11-26T06:16:12.946Z,6.25
2022-11-26T06:18:40.551Z,15.35
2022-11-26T06:21:08.421Z,12.45
2022-11-26T06:23:35.906Z,12.43
2022-11-26T06:26:10.768Z,10.18
2022-11-26T06:28:39.194Z,18.13
2022-11-26T06:31:09.516Z,16.38
2022-11-26T06:33:38.008Z,16.33
2022-11-26T06:36:06.381Z,13.80
2022-11-26T06:38:33.907Z,15.00
2022-11-26T06:41:03.971Z,11.65
2022-11-26T06:43:32.607Z,17.48
2022-11-26T06:46:07.865Z,13.05
2022-11-26T06:48:36.116Z,17.75
2022-11-26T06:51:11.603Z,14.68
2022-11-26T06:53:39.258Z,10.77
2022-11-26T06:56:14.820Z,9.25
2022-11-26T06:58:46.723Z,7.75
2022-11-26T07:01:20.708Z,9.32
2022-11-26T07:03:48.267Z,7.72
2022-11-26T07:06:30.932Z,21.75
2022-11-26T07:09:02.753Z,14.65
2022-11-26T07:11:30.530Z,13.95
2022-11-26T07:13:57.974Z,9.23
2022-11-26T07:16:25.801Z,9.70
2022-11-26T07:19:02.192Z,10.68
2022-11-26T07:21:31.378Z,8.43
2022-11-26T07:23:59.145Z,8.88
2022-11-26T07:26:26.659Z,17.52
2022-11-26T07:28:54.511Z,7.85
2022-11-26T07:31:23.128Z,7.05
2022-11-26T07:33:51.276Z,7.55
2022-11-26T07:36:27.440Z,9.68
2022-11-26T07:38:56.566Z,8.05
2022-11-26T07:41:26.045Z,9.70
2022-11-26T07:43:53.597Z,12.88
2022-11-26T07:46:23.819Z,15.52
2022-11-26T07:48:51.584Z,11.63
2022-11-26T07:51:21.519Z,11.48
2022-11-26T07:53:50.084Z,11.13
2022-11-26T07:56:18.251Z,8.38
2022-11-26T07:58:46.023Z,8.68
2022-11-26T08:01:16.682Z,7.15
2022-11-26T08:03:47.295Z,8.27
2022-11-26T08:06:17.509Z,4.47
2022-11-26T08:08:45.675Z,10.35
2022-11-26T08:11:33.869Z,11.55
2022-11-26T08:14:04.752Z,10.07
2022-11-26T08:16:32.839Z,12.85
2022-11-26T08:19:03.692Z,9.70
2022-11-26T08:21:31.534Z,11.07
2022-11-26T08:23:58.929Z,10.40
2022-11-26T08:26:33.897Z,24.15
2022-11-26T08:29:03.937Z,19.77
2022-11-26T08:31:31.795Z,18.25
2022-11-26T08:34:00.244Z,27.45
2022-11-26T08:36:28.780Z,26.27
2022-11-26T08:38:56.858Z,24.25
2022-11-26T08:41:24.350Z,22.27
2022-11-26T08:44:06.244Z,22.40
2022-11-26T08:46:35.489Z,37.33
2022-11-26T08:49:03.574Z,34.72
2022-11-26T08:51:31.059Z,20.50
2022-11-26T08:53:58.514Z,30.75
2022-11-26T08:56:26.029Z,32.65
2022-11-26T08:58:53.424Z,37.28
2022-11-26T09:01:26.674Z,20.77
2022-11-26T09:03:57.053Z,28.52
2022-11-26T09:06:26.200Z,24.08
2022-11-26T09:09:12.587Z,33.03
2022-11-26T09:12:11.852Z,28.75
2022-11-26T09:14:41.044Z,34.70
2022-11-26T09:17:10.058Z,24.85
2022-11-26T09:19:37.680Z,25.52
2022-11-26T09:22:05.320Z,33.25
2022-11-26T09:24:32.774Z,27.65
2022-11-26T09:27:05.873Z,30.92
2022-11-26T09:29:35.276Z,22.90
2022-11-26T09:34:50.296Z,26.65
2022-11-26T09:37:18.734Z,29.80
2022-11-26T09:39:46.244Z,21.42
2022-11-26T09:42:24.524Z,24.13
2022-11-26T09:45:19.638Z,25.40
2022-11-26T09:47:52.341Z,24.23
2022-11-26T09:50:33.410Z,24.60
2022-11-26T09:53:05.314Z,22.15
2022-11-26T09:55:35.733Z,27.05
2022-11-26T09:58:12.512Z,28.33
2022-11-26T10:00:43.931Z,25.98
2022-11-26T10:03:23.212Z,24.17
2022-11-26T10:06:15.919Z,27.35
2022-11-26T10:09:16.186Z,30.58
2022-11-26T10:12:26.071Z,21.10
2022-11-26T10:15:12.336Z,23.08
2022-11-26T10:17:47.934Z,25.30
2022-11-26T10:20:32.810Z,24.33
2022-11-26T10:23:12.054Z,26.25
2022-11-26T10:25:54.509Z,22.02
2022-11-26T10:28:38.280Z,24.52
2022-11-26T10:31:22.548Z,25.27
2022-11-26T10:34:02.793Z,25.85
2022-11-26T10:36:42.280Z,21.05
2022-11-26T10:39:15.187Z,22.50
2022-11-26T10:41:43.206Z,21.10
2022-11-26T10:44:29.422Z,18.58
2022-11-26T10:46:58.028Z,22.98
2022-11-26T10:49:30.440Z,21.30
2022-11-26T10:52:03.887Z,21.63
2022-11-26T10:54:36.324Z,20.33
2022-11-26T10:57:24.016Z,18.88
2022-11-26T10:59:53.465Z,22.17
2022-11-26T11:02:31.420Z,23.83
2022-11-26T11:05:05.735Z,25.42
2022-11-26T11:07:38.722Z,21.35
2022-11-26T11:10:16.224Z,35.35
2022-11-26T11:12:50.355Z,28.33
2022-11-26T11:15:21.239Z,24.17
2022-11-26T11:17:56.543Z,22.15
2022-11-26T11:20:44.033Z,23.38
2022-11-26T11:23:11.484Z,28.67
2022-11-26T11:25:46.828Z,21.13
2022-11-26T11:28:23.431Z,26.63
2022-11-26T11:31:06.748Z,28.33
2022-11-26T11:33:34.421Z,22.65
2022-11-26T11:36:13.843Z,25.13
2022-11-26T11:38:49.357Z,34.78
2022-11-26T11:41:44.596Z,20.48
2022-11-26T11:44:16.772Z,29.77
2022-11-26T11:46:53.572Z,26.15
2022-11-26T11:49:46.133Z,19.02
2022-11-26T11:52:36.723Z,25.40
2022-11-26T11:55:30.333Z,20.65
2022-11-26T11:58:07.322Z,22.10
2022-11-26T12:00:52.419Z,15.73
2022-11-26T12:03:43.086Z,21.88
2022-11-26T12:06:22.490Z,21.88
2022-11-26T12:09:02.021Z,24.92
2022-11-26T12:11:41.449Z,22.27
2022-11-26T12:14:19.803Z,25.17
2022-11-26T12:16:51.317Z,29.35
2022-11-26T12:19:36.158Z,32.80
2022-11-26T12:22:08.570Z,20.33
2022-11-26T12:24:51.204Z,31.38
2022-11-26T12:27:33.450Z,32.97
2022-11-26T12:30:14.300Z,30.98
2022-11-26T12:33:04.979Z,24.30
2022-11-26T12:35:41.223Z,30.98
2022-11-26T12:38:34.867Z,19.80
2022-11-26T12:41:13.180Z,24.17
2022-11-26T12:43:56.861Z,25.25
2022-11-26T12:46:47.408Z,25.13
2022-11-26T12:49:27.985Z,23.02
2022-11-26T12:52:24.322Z,24.13
2022-11-26T12:55:11.836Z,26.92
2022-11-26T12:57:59.517Z,19.67
2022-11-26T13:00:35.738Z,22.95
2022-11-26T13:03:06.414Z,23.38
2022-11-26T13:06:32.210Z,29.63
2022-11-26T13:09:28.316Z,29.42
2022-11-26T13:12:34.267Z,24.97
2022-11-26T13:15:24.748Z,32.03
2022-11-26T13:17:52.894Z,15.32
2022-11-26T13:20:28.955Z,24.25
2022-11-26T13:26:09.993Z,23.00
2022-11-26T13:28:46.708Z,22.90
2022-11-26T13:31:36.254Z,20.25
2022-11-26T13:34:19.889Z,20.63
2022-11-26T13:37:16.431Z,19.70
2022-11-26T13:40:12.501Z,20.25
2022-11-26T13:43:15.353Z,24.83
2022-11-26T13:46:08.216Z,24.48
2022-11-26T13:48:39.851Z,26.15
2022-11-26T13:51:22.652Z,22.00
2022-11-26T13:54:25.349Z,29.63
2022-11-26T13:57:06.150Z,31.33
2022-11-26T13:59:36.810Z,28.60
2022-11-26T14:02:36.527Z,22.67
2022-11-26T14:05:13.655Z,19.73
2022-11-26T14:07:42.206Z,19.70
2022-11-26T14:10:36.924Z,23.00
2022-11-26T14:13:04.713Z,26.15
2022-11-26T14:15:41.288Z,31.98
2022-11-26T14:18:14.877Z,22.67
2022-11-26T14:20:57.543Z,27.98
2022-11-26T14:23:54.511Z,23.50
2022-11-26T14:28:49.202Z,36.42
2022-11-26T14:31:24.271Z,26.33
2022-11-26T14:33:54.449Z,33.83
2022-11-26T14:36:24.858Z,24.70
2022-11-26T14:39:07.634Z,24.70
2022-11-26T14:42:00.500Z,27.38
2022-11-26T14:44:33.148Z,35.25
2022-11-26T14:47:08.485Z,27.65
2022-11-26T14:49:43.713Z,21.20
2022-11-26T14:52:22.674Z,29.95
2022-11-26T14:54:53.774Z,33.00
2022-11-26T14:57:26.472Z,35.22
2022-11-26T14:59:56.951Z,33.22
2022-11-26T15:02:26.176Z,31.55
2022-11-26T15:05:13.928Z,36.08
2022-11-26T15:07:41.456Z,26.38
2022-11-26T15:10:15.159Z,26.15
2022-11-26T15:12:44.023Z,26.27
2022-11-26T15:15:20.990Z,27.48
2022-11-26T15:17:54.358Z,26.45
2022-11-26T15:20:23.382Z,27.30
2022-11-26T15:22:57.521Z,32.47
2022-11-26T15:25:37.519Z,28.60
2022-11-26T15:28:19.548Z,36.22
2022-11-26T15:31:13.457Z,41.30
2022-11-26T15:33:42.389Z,34.13
2022-11-26T15:36:17.250Z,36.40
2022-11-26T15:39:06.740Z,32.38
2022-11-26T15:41:42.408Z,33.53
2022-11-26T15:44:26.079Z,27.23
2022-11-26T15:46:56.039Z,34.60
2022-11-26T15:49:28.106Z,30.10
2022-11-26T15:52:02.365Z,33.53
2022-11-26T15:54:49.659Z,29.17
2022-11-26T15:57:28.191Z,36.20
2022-11-26T16:00:00.198Z,36.60
2022-11-26T16:02:28.988Z,36.42
2022-11-26T16:04:58.678Z,30.17
2022-11-26T16:07:31.216Z,35.33
2022-11-26T16:10:17.127Z,31.70
2022-11-26T16:13:16.656Z,35.58
2022-11-26T16:16:05.479Z,27.77
2022-11-26T16:18:43.598Z,38.70
2022-11-26T16:21:24.448Z,36.63
2022-11-26T16:24:03.411Z,36.22
2022-11-26T16:26:31.297Z,30.90
2022-11-26T16:28:58.732Z,41.10
2022-11-26T16:31:26.403Z,38.10
2022-11-26T16:33:53.976Z,37.08
2022-11-26T16:36:23.243Z,32.28
2022-11-26T16:38:51.513Z,39.80
2022-11-26T16:41:21.337Z,37.85
2022-11-26T16:43:49.562Z,31.90
2022-11-26T16:46:24.485Z,33.28
2022-11-26T16:48:52.505Z,40.80
2022-11-26T16:51:21.592Z,44.97
2022-11-26T16:53:49.317Z,35.90
2022-11-26T16:56:28.198Z,31.63
2022-11-26T16:58:58.779Z,28.23
2022-11-26T17:01:27.108Z,37.63
2022-11-26T17:03:54.644Z,33.20
2022-11-26T17:06:26.337Z,35.72
2022-11-26T17:08:55.849Z,42.67
2022-11-26T17:11:24.342Z,36.42
2022-11-26T17:13:52.312Z,40.75
2022-11-26T17:16:21.866Z,39.15
2022-11-26T17:18:50.161Z,41.65
2022-11-26T17:21:17.812Z,34.55
2022-11-26T17:23:45.282Z,40.10
2022-11-26T17:26:20.131Z,40.47
2022-11-26T17:28:48.620Z,38.80
2022-11-26T17:31:16.986Z,41.15
2022-11-26T17:33:44.593Z,29.60
2022-11-26T17:36:18.121Z,36.47
2022-11-26T17:38:46.691Z,28.88
2022-11-26T17:41:14.877Z,29.27
2022-11-26T17:43:42.799Z,34.55
2022-11-26T17:46:15.759Z,29.85
2022-11-26T17:48:44.421Z,41.25
2022-11-26T17:51:14.065Z,31.55
2022-11-26T17:53:42.802Z,35.22
2022-11-26T17:56:23.506Z,31.90
2022-11-26T17:58:51.163Z,39.70
2022-11-26T18:01:19.373Z,37.97
2022-11-26T18:03:47.506Z,37.83
2022-11-26T18:06:32.184Z,35.08
2022-11-26T18:08:59.631Z,36.50
2022-11-26T18:11:45.000Z,32.38
2022-11-26T18:14:12.543Z,35.65
2022-11-26T18:16:40.398Z,40.47
2022-11-26T18:19:09.641Z,36.63
2022-11-26T18:21:38.040Z,34.78
2022-11-26T18:24:06.470Z,34.20
2022-11-26T18:26:34.156Z,36.17
2022-11-26T18:29:02.608Z,28.13
2022-11-26T18:31:35.318Z,52.28
2022-11-26T18:34:06.363Z,33.88
2022-11-26T18:36:34.408Z,27.13
2022-11-26T18:39:05.441Z,41.83
2022-11-26T18:41:33.519Z,35.50
2022-11-26T18:44:02.194Z,35.45
2022-11-26T18:46:30.319Z,39.17
2022-11-26T18:48:58.448Z,33.90
2022-11-26T18:51:26.217Z,42.38
2022-11-26T18:53:53.691Z,41.67
2022-11-26T18:56:22.935Z,37.35
2022-11-26T18:58:50.868Z,37.83
2022-11-26T19:01:25.428Z,47.22
2022-11-26T19:03:53.625Z,40.80
2022-11-26T19:06:23.980Z,36.22
2022-11-26T19:08:56.471Z,33.25
2022-11-26T19:11:24.622Z,37.00
2022-11-26T19:13:52.219Z,38.85
2022-11-26T19:16:20.203Z,39.97
2022-11-26T19:18:48.351Z,46.00
2022-11-26T19:21:25.176Z,39.67
2022-11-26T19:23:53.911Z,34.80
2022-11-26T19:26:23.698Z,36.15
2022-11-26T19:28:51.582Z,35.25
2022-11-26T19:31:22.105Z,36.17
2022-11-26T19:33:58.231Z,37.72
2022-11-26T19:36:26.524Z,44.03
2022-11-26T19:38:56.079Z,36.55
2022-11-26T19:41:25.825Z,40.92
2022-11-26T19:43:54.591Z,42.92
2022-11-26T19:46:24.718Z,44.80
2022-11-26T19:48:53.024Z,43.72
2022-11-26T19:51:22.278Z,37.22
2022-11-26T19:53:54.313Z,47.00
2022-11-26T19:56:27.792Z,35.72
2022-11-26T19:58:58.651Z,35.60
2022-11-26T20:01:30.330Z,40.90
2022-11-26T20:04:03.667Z,35.72
2022-11-26T20:06:32.974Z,38.88
2022-11-26T20:09:00.460Z,37.33
2022-11-26T20:11:28.992Z,42.22
2022-11-26T20:13:57.587Z,36.60
2022-11-26T20:16:30.186Z,33.58
2022-11-26T20:18:59.150Z,46.33
2022-11-26T20:21:28.604Z,35.70
2022-11-26T20:23:59.063Z,42.60
2022-11-26T20:26:32.276Z,46.10
2022-11-26T20:29:02.458Z,45.55
2022-11-26T20:31:29.990Z,40.47
2022-11-26T20:33:57.544Z,41.38
2022-11-26T20:36:25.107Z,39.97
2022-11-26T20:38:54.487Z,29.80
2022-11-26T20:41:22.388Z,50.60
2022-11-26T20:43:56.602Z,39.00
2022-11-26T20:46:27.239Z,46.67
2022-11-26T20:48:55.442Z,40.28
2022-11-26T20:51:23.519Z,47.90
2022-11-26T20:53:52.184Z,38.00
2022-11-26T20:56:21.992Z,41.03
2022-11-26T20:58:51.392Z,39.90
2022-11-26T21:01:24.450Z,41.30
2022-11-26T21:03:53.077Z,42.08
2022-11-26T21:06:29.082Z,40.17
2022-11-26T21:08:59.778Z,46.80
2022-11-26T21:11:27.310Z,38.30
2022-11-26T21:13:54.909Z,44.00
2022-11-26T21:16:23.435Z,44.83
2022-11-26T21:18:54.216Z,36.45
2022-11-26T21:21:22.987Z,44.67
2022-11-26T21:23:50.920Z,41.13
2022-11-26T21:26:22.250Z,42.17
2022-11-26T21:28:55.087Z,50.30
2022-11-26T21:31:23.496Z,44.60
2022-11-26T21:33:59.457Z,43.17
2022-11-26T21:36:28.053Z,60.22
2022-11-26T21:38:55.637Z,42.22
2022-11-26T21:41:24.084Z,40.22
2022-11-26T21:43:52.102Z,49.33
2022-11-26T21:46:25.309Z,48.25
2022-11-26T21:48:57.140Z,37.33
2022-11-26T21:51:27.813Z,39.60
2022-11-26T21:53:56.572Z,42.78
2022-11-26T21:56:26.702Z,44.15
2022-11-26T21:58:57.040Z,42.85
2022-11-26T22:01:27.129Z,47.97
2022-11-26T22:03:59.254Z,53.85
2022-11-26T22:06:27.486Z,46.90
2022-11-26T22:08:55.215Z,44.45
2022-11-26T22:11:25.775Z,43.40
2022-11-26T22:13:53.477Z,38.58
2022-11-26T22:16:23.539Z,39.78
2022-11-26T22:18:52.219Z,40.65
2022-11-26T22:21:26.751Z,37.28
2022-11-26T22:23:54.356Z,40.85
2022-11-26T22:26:22.394Z,44.53
2022-11-26T22:28:50.985Z,39.80
2022-11-26T22:31:24.004Z,40.47
2022-11-26T22:33:55.371Z,41.22
2022-11-26T22:36:23.062Z,42.55
2022-11-26T22:38:50.539Z,35.85
2022-11-26T22:41:18.496Z,39.65
2022-11-26T22:43:46.356Z,44.70
2022-11-26T22:46:19.138Z,44.78
2022-11-26T22:48:52.130Z,37.92
2022-11-26T22:51:20.402Z,37.30
2022-11-26T22:53:51.849Z,39.63
2022-11-26T22:56:20.007Z,42.90
2022-11-26T22:58:47.787Z,45.97
2022-11-26T23:01:27.653Z,49.13
2022-11-26T23:03:56.556Z,38.72
2022-11-26T23:06:25.789Z,48.30
2022-11-26T23:08:54.794Z,39.55
2022-11-26T23:11:31.046Z,49.28
2022-11-26T23:13:58.956Z,45.15
2022-11-26T23:16:27.176Z,57.63
2022-11-26T23:18:56.950Z,50.25
2022-11-26T23:21:30.113Z,57.95
2022-11-26T23:23:58.217Z,45.65
2022-11-26T23:26:29.616Z,48.67
2022-11-26T23:28:58.338Z,49.13
2022-11-26T23:31:34.568Z,46.28
2022-11-26T23:34:02.428Z,53.47
2022-11-26T23:36:30.946Z,49.95
2022-11-26T23:39:03.088Z,56.28
2022-11-26T23:41:30.677Z,51.00
2022-11-26T23:43:58.299Z,51.38
2022-11-26T23:46:28.753Z,54.25
2022-11-26T23:48:56.510Z,50.65
2022-11-26T23:51:31.235Z,45.50
2022-11-26T23:53:58.773Z,56.28
2022-11-26T23:56:29.188Z,53.50
2022-11-26T23:58:59.833Z,49.30
